Time;durP1;ratioP1;P1;durP2;ratioP2;P2;SDS_P1;SDS_P2;PMS_P1;PMS_P2;Temp;Humidity;BMP_temperature;BMP_pressure;BME280_temperature;BME280_humidity;BME280_pressure;Samples;Min_cycle;Max_cycle;Signal;HPM_P1;HPM_P2
2022/11/21 00:00:41;;;;;;;29.02;12.35;;;;;;;;;;5029196;28;20051;-71
2022/11/21 00:03:08;;;;;;;26.48;11.27;;;;;;;;;;5013490;28;20565;-76
2022/11/21 00:05:37;;;;;;;27.90;12.02;;;;;;;;;;5013374;28;20053;-72
2022/11/21 00:08:04;;;;;;;23.70;5.88;;;;;;;;;;5025511;28;20438;-71
2022/11/21 00:10:31;;;;;;;21.13;5.72;;;;;;;;;;5033881;28;20374;-71
2022/11/21 00:12:57;;;;;;;14.48;4.80;;;;;;;;;;5034906;28;20060;-71
2022/11/21 00:15:24;;;;;;;22.73;7.32;;;;;;;;;;5033113;28;20060;-71
2022/11/21 00:17:51;;;;;;;22.10;8.67;;;;;;;;;;5034800;28;20049;-71
2022/11/21 00:20:18;;;;;;;23.88;7.35;;;;;;;;;;5034666;28;20060;-71
2022/11/21 00:22:45;;;;;;;19.80;7.77;;;;;;;;;;5034784;28;20049;-71
2022/11/21 00:25:11;;;;;;;24.23;8.85;;;;;;;;;;5034563;28;20051;-71
2022/11/21 00:27:38;;;;;;;18.85;8.93;;;;;;;;;;5034772;28;20042;-71
2022/11/21 00:30:05;;;;;;;19.05;5.90;;;;;;;;;;5034249;28;20404;-71
2022/11/21 00:32:32;;;;;;;15.98;6.10;;;;;;;;;;5034234;28;20052;-71
2022/11/21 00:34:58;;;;;;;19.08;6.90;;;;;;;;;;5034822;28;20072;-72
2022/11/21 00:37:25;;;;;;;17.17;8.95;;;;;;;;;;5034019;28;20520;-72
2022/11/21 00:39:51;;;;;;;27.13;11.65;;;;;;;;;;5034504;28;20049;-71
2022/11/21 00:42:17;;;;;;;18.05;7.72;;;;;;;;;;5034098;28;20053;-71
2022/11/21 00:44:44;;;;;;;20.08;9.65;;;;;;;;;;5033853;28;20045;-72
2022/11/21 00:47:10;;;;;;;19.23;7.97;;;;;;;;;;5034256;28;20049;-72
2022/11/21 00:49:36;;;;;;;19.15;8.07;;;;;;;;;;5034255;28;20050;-72
2022/11/21 00:52:03;;;;;;;19.95;8.35;;;;;;;;;;5032780;28;20064;-72
2022/11/21 00:54:29;;;;;;;35.55;13.35;;;;;;;;;;5033317;28;20045;-72
2022/11/21 00:56:55;;;;;;;25.88;9.43;;;;;;;;;;5033498;28;20493;-71
2022/11/21 00:59:22;;;;;;;27.38;10.10;;;;;;;;;;5033846;28;20054;-71
2022/11/21 01:01:48;;;;;;;19.85;6.97;;;;;;;;;;5033825;28;20057;-72
2022/11/21 01:04:15;;;;;;;16.75;8.18;;;;;;;;;;5033806;28;20061;-72
2022/11/21 01:06:41;;;;;;;21.23;5.25;;;;;;;;;;5033704;28;20061;-72
2022/11/21 01:09:07;;;;;;;20.20;4.50;;;;;;;;;;5033619;28;20041;-71
2022/11/21 01:11:34;;;;;;;20.10;6.30;;;;;;;;;;5033324;28;20408;-71
2022/11/21 01:14:00;;;;;;;19.52;7.07;;;;;;;;;;5033460;28;20493;-72
2022/11/21 01:16:27;;;;;;;18.20;8.90;;;;;;;;;;5033450;28;20501;-72
2022/11/21 01:18:54;;;;;;;20.60;9.80;;;;;;;;;;5033547;28;20047;-71
2022/11/21 01:21:21;;;;;;;22.58;6.03;;;;;;;;;;5032298;28;20049;-72
2022/11/21 01:23:48;;;;;;;17.50;5.88;;;;;;;;;;5032043;28;20076;-71
2022/11/21 01:26:16;;;;;;;12.15;4.60;;;;;;;;;;5033164;28;20053;-71
2022/11/21 01:28:43;;;;;;;19.92;5.28;;;;;;;;;;5033272;28;20831;-71
2022/11/21 01:31:10;;;;;;;19.15;6.20;;;;;;;;;;5033519;28;20049;-71
2022/11/21 01:33:37;;;;;;;16.08;5.35;;;;;;;;;;5033152;28;20049;-72
2022/11/21 01:36:12;;;;;;;16.85;5.55;;;;;;;;;;5033080;28;20056;-71
2022/11/21 01:38:39;;;;;;;13.82;5.18;;;;;;;;;;5033174;28;20050;-71
2022/11/21 01:41:06;;;;;;;13.95;5.50;;;;;;;;;;5033330;28;20050;-71
2022/11/21 01:43:33;;;;;;;17.98;5.50;;;;;;;;;;5033282;28;20049;-71
2022/11/21 01:46:04;;;;;;;15.50;5.32;;;;;;;;;;5032924;28;20527;-71
2022/11/21 01:48:33;;;;;;;17.08;6.47;;;;;;;;;;5032854;28;20527;-71
2022/11/21 01:51:23;;;;;;;17.15;6.13;;;;;;;;;;5032786;28;20054;-71
2022/11/21 01:53:51;;;;;;;20.52;5.40;;;;;;;;;;5032170;28;20515;-71
2022/11/21 01:56:18;;;;;;;19.10;4.90;;;;;;;;;;5032891;28;20041;-71
2022/11/21 01:58:45;;;;;;;20.85;6.10;;;;;;;;;;5032892;28;20041;-71
2022/11/21 02:01:12;;;;;;;14.07;5.93;;;;;;;;;;5031117;28;20505;-71
2022/11/21 02:03:39;;;;;;;15.48;5.53;;;;;;;;;;5028004;28;20041;-71
2022/11/21 02:06:08;;;;;;;21.27;5.32;;;;;;;;;;5032150;28;20382;-71
2022/11/21 02:08:35;;;;;;;13.15;4.85;;;;;;;;;;5032650;28;20050;-71
2022/11/21 02:11:08;;;;;;;13.13;4.40;;;;;;;;;;5031557;28;20072;-71
2022/11/21 02:13:34;;;;;;;17.38;4.95;;;;;;;;;;5032623;28;20057;-71
2022/11/21 02:16:01;;;;;;;16.30;4.30;;;;;;;;;;5032657;28;20053;-71
2022/11/21 02:18:27;;;;;;;15.30;4.25;;;;;;;;;;5032571;28;20049;-71
2022/11/21 02:20:59;;;;;;;14.73;4.43;;;;;;;;;;5032398;28;20050;-71
2022/11/21 02:23:29;;;;;;;14.32;4.78;;;;;;;;;;5032637;28;20071;-71
2022/11/21 02:25:56;;;;;;;13.95;4.72;;;;;;;;;;5032309;28;20056;-71
2022/11/21 02:28:23;;;;;;;18.52;4.55;;;;;;;;;;5032073;28;20505;-71
2022/11/21 02:30:49;;;;;;;11.38;3.78;;;;;;;;;;5032041;28;20052;-71
2022/11/21 02:33:16;;;;;;;12.15;4.82;;;;;;;;;;5032406;28;20056;-71
2022/11/21 02:35:42;;;;;;;11.75;4.00;;;;;;;;;;5032266;28;20087;-71
2022/11/21 02:38:15;;;;;;;18.60;4.75;;;;;;;;;;5031860;28;20060;-71
2022/11/21 02:40:42;;;;;;;11.98;4.80;;;;;;;;;;5031919;28;20489;-71
2022/11/21 02:43:09;;;;;;;;;;;;;;;;;;5032314;28;20489;-71
2022/11/21 02:45:37;;;;;;;12.48;4.90;;;;;;;;;;5031744;28;20304;-71
2022/11/21 02:48:04;;;;;;;10.95;4.68;;;;;;;;;;5031980;28;20049;-71
2022/11/21 02:50:32;;;;;;;11.70;4.07;;;;;;;;;;5032062;28;20053;-71
2022/11/21 02:52:58;;;;;;;13.38;5.03;;;;;;;;;;5031895;28;20049;-71
2022/11/21 02:55:25;;;;;;;7.72;4.25;;;;;;;;;;5030791;28;20056;-71
2022/11/21 02:57:51;;;;;;;17.45;4.80;;;;;;;;;;5030398;28;20056;-71
2022/11/21 03:00:18;;;;;;;17.70;5.90;;;;;;;;;;5031620;28;20045;-71
2022/11/21 03:02:45;;;;;;;16.27;6.55;;;;;;;;;;5031547;28;20412;-71
2022/11/21 03:05:13;;;;;;;20.38;7.45;;;;;;;;;;5031628;28;20059;-71
2022/11/21 03:07:39;;;;;;;;;;;;;;;;;;5032161;28;20057;-71
2022/11/21 03:10:06;;;;;;;15.73;5.70;;;;;;;;;;5031872;28;19971;-71
2022/11/21 03:12:34;;;;;;;19.52;6.82;;;;;;;;;;5031509;28;20047;-71
2022/11/21 03:15:01;;;;;;;17.92;6.18;;;;;;;;;;5031501;28;20049;-71
2022/11/21 03:17:27;;;;;;;20.85;6.60;;;;;;;;;;5030487;28;20133;-71
2022/11/21 03:19:54;;;;;;;16.08;5.13;;;;;;;;;;5035494;28;20053;-71
2022/11/21 03:22:20;;;;;;;20.77;5.28;;;;;;;;;;5035623;28;20045;-71
2022/11/21 03:24:46;;;;;;;15.35;5.00;;;;;;;;;;5036019;28;20048;-71
2022/11/21 03:27:13;;;;;;;15.43;5.25;;;;;;;;;;5035737;28;20053;-71
2022/11/21 03:29:39;;;;;;;13.30;4.85;;;;;;;;;;5034496;28;20045;-71
2022/11/21 03:32:05;;;;;;;20.67;5.45;;;;;;;;;;5034282;28;20045;-71
2022/11/21 03:34:32;;;;;;;18.33;5.65;;;;;;;;;;5035346;28;20046;-71
2022/11/21 03:36:58;;;;;;;18.40;5.45;;;;;;;;;;5034203;28;20046;-71
2022/11/21 03:39:25;;;;;;;16.98;4.88;;;;;;;;;;5035247;28;20049;-71
2022/11/21 03:41:51;;;;;;;20.83;3.95;;;;;;;;;;5035415;28;20045;-71
2022/11/21 03:44:17;;;;;;;17.95;4.10;;;;;;;;;;5035373;28;20049;-71
2022/11/21 03:46:45;;;;;;;19.75;3.38;;;;;;;;;;5033824;28;20051;-71
2022/11/21 03:49:12;;;;;;;18.77;4.22;;;;;;;;;;5035406;28;20045;-71
2022/11/21 03:51:39;;;;;;;20.23;4.05;;;;;;;;;;5034972;28;20081;-71
2022/11/21 03:54:06;;;;;;;12.48;2.92;;;;;;;;;;5035037;28;20060;-71
2022/11/21 03:56:33;;;;;;;19.73;4.10;;;;;;;;;;5035182;28;20054;-71
2022/11/21 03:58:59;;;;;;;17.70;4.28;;;;;;;;;;5034955;28;20651;-71
2022/11/21 04:01:26;;;;;;;18.73;3.95;;;;;;;;;;5035188;28;20075;-71
2022/11/21 04:03:57;;;;;;;17.48;3.83;;;;;;;;;;5034992;28;20045;-71
2022/11/21 04:06:24;;;;;;;19.90;4.45;;;;;;;;;;5033466;28;20053;-71
2022/11/21 04:08:51;;;;;;;20.17;5.43;;;;;;;;;;5034880;28;20051;-71
2022/11/21 04:11:17;;;;;;;27.23;6.07;;;;;;;;;;5034767;28;20051;-71
2022/11/21 04:13:44;;;;;;;24.90;6.00;;;;;;;;;;5033588;28;20055;-72
2022/11/21 04:16:10;;;;;;;22.17;6.72;;;;;;;;;;5035010;28;20061;-71
2022/11/21 04:18:37;;;;;;;36.70;14.93;;;;;;;;;;5034442;28;20053;-72
2022/11/21 04:21:04;;;;;;;36.00;10.90;;;;;;;;;;5034752;28;20046;-71
2022/11/21 04:23:30;;;;;;;19.92;5.22;;;;;;;;;;5034464;28;20057;-72
2022/11/21 04:25:57;;;;;;;17.65;3.97;;;;;;;;;;5034520;28;20042;-71
2022/11/21 04:28:23;;;;;;;20.02;4.07;;;;;;;;;;5034348;28;20048;-71
2022/11/21 04:30:50;;;;;;;16.52;3.78;;;;;;;;;;5034471;28;20537;-72
2022/11/21 04:33:20;;;;;;;21.02;3.42;;;;;;;;;;5034405;28;20055;-71
2022/11/21 04:35:46;;;;;;;20.67;3.60;;;;;;;;;;5034463;28;20049;-72
2022/11/21 04:38:13;;;;;;;16.08;2.95;;;;;;;;;;5033964;28;20057;-72
2022/11/21 04:40:39;;;;;;;18.63;3.13;;;;;;;;;;5034504;28;20128;-72
2022/11/21 04:43:07;;;;;;;18.13;2.95;;;;;;;;;;5034294;28;20050;-72
2022/11/21 04:45:33;;;;;;;14.07;2.80;;;;;;;;;;5034295;28;20052;-71
2022/11/21 04:47:59;;;;;;;17.73;3.08;;;;;;;;;;5034047;28;20059;-71
2022/11/21 04:50:26;;;;;;;19.58;3.70;;;;;;;;;;5033900;28;20477;-71
2022/11/21 04:52:53;;;;;;;17.45;3.80;;;;;;;;;;5034213;28;20050;-71
2022/11/21 04:55:20;;;;;;;17.10;3.30;;;;;;;;;;5028859;28;20052;-71
2022/11/21 04:57:47;;;;;;;14.27;2.63;;;;;;;;;;5013058;28;20076;-71
2022/11/21 05:00:14;;;;;;;18.55;3.80;;;;;;;;;;5024756;28;20050;-71
2022/11/21 05:02:47;;;;;;;17.73;3.25;;;;;;;;;;5033697;28;20049;-72
2022/11/21 05:05:14;;;;;;;18.08;3.45;;;;;;;;;;5033781;28;20045;-71
2022/11/21 05:07:40;;;;;;;17.83;3.72;;;;;;;;;;5032643;28;20041;-71
2022/11/21 05:10:07;;;;;;;19.65;3.63;;;;;;;;;;5032587;28;20046;-71
2022/11/21 05:15:32;;;;;;;17.73;3.17;;;;;;;;;;5032332;28;20053;-72
2022/11/21 05:17:59;;;;;;;14.20;2.50;;;;;;;;;;5033340;28;20061;-72
2022/11/21 05:20:25;;;;;;;20.17;3.78;;;;;;;;;;5033708;28;20071;-71
2022/11/21 05:22:52;;;;;;;19.92;4.38;;;;;;;;;;5033736;28;20049;-71
2022/11/21 05:25:18;;;;;;;13.98;3.03;;;;;;;;;;5033177;28;20048;-71
2022/11/21 05:27:45;;;;;;;14.45;3.10;;;;;;;;;;5033463;28;20115;-72
2022/11/21 05:30:12;;;;;;;15.82;3.60;;;;;;;;;;5033088;28;20051;-72
2022/11/21 05:32:38;;;;;;;18.55;3.08;;;;;;;;;;5033522;28;20055;-72
2022/11/21 05:35:06;;;;;;;15.38;3.10;;;;;;;;;;5033202;28;20049;-71
2022/11/21 05:37:33;;;;;;;;;;;;;;;;;;5033482;28;20527;-72
2022/11/21 05:40:00;;;;;;;18.10;3.33;;;;;;;;;;5031789;28;19929;-72
2022/11/21 05:45:11;;;;;;;16.63;3.63;;;;;;;;;;5033395;28;20164;-72
2022/11/21 05:47:40;;;;;;;19.55;4.15;;;;;;;;;;5016862;28;20048;-72
2022/11/21 05:50:06;;;;;;;17.05;3.83;;;;;;;;;;5025349;28;20045;-72
2022/11/21 05:52:32;;;;;;;19.35;4.13;;;;;;;;;;5032723;28;20489;-72
2022/11/21 05:54:59;;;;;;;20.33;3.72;;;;;;;;;;5031816;28;20045;-72
2022/11/21 05:57:25;;;;;;;16.90;3.50;;;;;;;;;;5032948;28;20060;-71
2022/11/21 05:59:52;;;;;;;16.80;4.35;;;;;;;;;;5032942;28;20049;-72
2022/11/21 06:05:03;;;;;;;14.07;3.60;;;;;;;;;;5032948;28;20448;-72
2022/11/21 06:07:30;;;;;;;19.42;3.78;;;;;;;;;;5032275;28;20049;-72
2022/11/21 06:09:56;;;;;;;16.67;3.40;;;;;;;;;;5032705;28;20073;-72
2022/11/21 06:12:22;;;;;;;18.60;3.17;;;;;;;;;;5032651;28;20052;-71
2022/11/21 06:14:51;;;;;;;19.17;3.22;;;;;;;;;;5031433;28;20042;-71
2022/11/21 06:17:18;;;;;;;15.80;3.47;;;;;;;;;;5032494;28;20152;-71
2022/11/21 06:19:44;;;;;;;20.35;3.85;;;;;;;;;;5032489;28;20049;-72
2022/11/21 06:22:11;;;;;;;19.55;3.35;;;;;;;;;;5032503;28;20084;-72
2022/11/21 06:24:37;;;;;;;14.35;3.47;;;;;;;;;;5032405;28;20055;-72
2022/11/21 06:27:03;;;;;;;18.55;3.30;;;;;;;;;;5032389;28;20064;-71
2022/11/21 06:29:30;;;;;;;18.00;3.50;;;;;;;;;;5032445;28;20049;-72
2022/11/21 06:31:56;;;;;;;20.00;4.00;;;;;;;;;;5032324;28;20051;-72
2022/11/21 06:34:24;;;;;;;19.85;4.00;;;;;;;;;;5032337;28;20053;-71
2022/11/21 06:36:51;;;;;;;17.48;4.57;;;;;;;;;;5030515;28;20136;-71
2022/11/21 06:39:17;;;;;;;19.02;4.25;;;;;;;;;;5030953;28;20052;-71
2022/11/21 06:41:49;;;;;;;17.02;3.95;;;;;;;;;;5031870;28;20057;-71
2022/11/21 06:44:19;;;;;;;18.13;3.67;;;;;;;;;;5032103;28;20053;-71
2022/11/21 06:46:45;;;;;;;18.45;3.63;;;;;;;;;;5031874;28;20054;-71
2022/11/21 06:49:17;;;;;;;15.55;3.42;;;;;;;;;;5031964;28;20060;-72
2022/11/21 06:51:43;;;;;;;19.90;3.67;;;;;;;;;;5032000;28;20481;-71
2022/11/21 06:54:10;;;;;;;13.73;3.50;;;;;;;;;;5031208;28;20049;-72
2022/11/21 06:56:42;;;;;;;16.75;3.25;;;;;;;;;;5027591;28;20049;-71
2022/11/21 06:59:09;;;;;;;14.68;3.90;;;;;;;;;;5017117;28;20064;-71
2022/11/21 07:01:35;;;;;;;16.92;4.10;;;;;;;;;;5031537;28;20061;-71
2022/11/21 07:04:02;;;;;;;19.58;6.13;;;;;;;;;;5031912;28;20065;-71
2022/11/21 07:06:28;;;;;;;14.15;4.35;;;;;;;;;;5030434;28;20056;-71
2022/11/21 07:08:54;;;;;;;14.93;3.63;;;;;;;;;;5031907;28;20046;-71
2022/11/21 07:11:41;;;;;;;16.08;4.00;;;;;;;;;;5031916;28;20409;-71
2022/11/21 07:14:08;;;;;;;13.38;3.72;;;;;;;;;;5030402;28;20481;-71
2022/11/21 07:16:35;;;;;;;14.93;3.67;;;;;;;;;;5030372;28;20063;-71
2022/11/21 07:19:01;;;;;;;18.25;4.32;;;;;;;;;;5031523;28;20409;-71
2022/11/21 07:21:27;;;;;;;16.25;3.72;;;;;;;;;;5031237;28;20045;-71
2022/11/21 07:23:54;;;;;;;15.32;4.03;;;;;;;;;;5031547;28;20045;-71
2022/11/21 07:26:20;;;;;;;19.55;3.95;;;;;;;;;;5031316;28;20053;-71
2022/11/21 07:28:47;;;;;;;17.65;4.10;;;;;;;;;;5031008;28;20041;-71
2022/11/21 07:31:13;;;;;;;21.42;5.00;;;;;;;;;;5030139;28;20583;-73
2022/11/21 07:33:41;;;;;;;13.70;3.30;;;;;;;;;;5031583;28;20046;-73
2022/11/21 07:36:08;;;;;;;12.80;3.67;;;;;;;;;;5031350;28;20049;-73
2022/11/21 07:38:34;;;;;;;18.30;3.88;;;;;;;;;;5031156;28;20057;-72
2022/11/21 07:41:01;;;;;;;13.88;3.58;;;;;;;;;;5031314;28;20053;-72
2022/11/21 07:43:27;;;;;;;15.73;3.92;;;;;;;;;;5031425;28;20087;-73
2022/11/21 07:45:55;;;;;;;15.50;4.13;;;;;;;;;;5030933;28;20073;-72
2022/11/21 07:48:21;;;;;;;21.02;3.80;;;;;;;;;;5031134;28;20050;-72
2022/11/21 07:50:47;;;;;;;18.23;3.72;;;;;;;;;;5025518;28;20418;-73
2022/11/21 07:53:14;;;;;;;14.68;3.75;;;;;;;;;;5020409;28;20405;-69
2022/11/21 07:55:41;;;;;;;21.02;4.20;;;;;;;;;;5019379;28;20078;-73
2022/11/21 07:58:09;;;;;;;25.73;4.85;;;;;;;;;;5030890;28;20077;-73
2022/11/21 08:00:37;;;;;;;19.45;3.75;;;;;;;;;;5030099;28;20052;-72
2022/11/21 08:03:05;;;;;;;18.45;4.78;;;;;;;;;;5031142;28;20060;-72
2022/11/21 08:05:35;;;;;;;24.67;5.95;;;;;;;;;;5033770;28;20049;-74
2022/11/21 08:08:02;;;;;;;21.48;4.97;;;;;;;;;;5030224;28;20045;-72
2022/11/21 08:10:28;;;;;;;17.65;4.55;;;;;;;;;;5034676;28;20045;-74
2022/11/21 08:12:55;;;;;;;19.95;4.95;;;;;;;;;;5034807;28;20548;-75
2022/11/21 08:15:21;;;;;;;18.58;4.45;;;;;;;;;;5026682;28;20069;-75
2022/11/21 08:17:47;;;;;;;23.67;4.63;;;;;;;;;;5028900;28;20049;-74
2022/11/21 08:20:14;;;;;;;32.47;5.38;;;;;;;;;;5025633;28;20068;-75
2022/11/21 08:22:40;;;;;;;23.70;4.68;;;;;;;;;;5024046;28;20057;-77
2022/11/21 08:25:07;;;;;;;22.60;5.45;;;;;;;;;;5017006;28;20054;-77
2022/11/21 08:27:34;;;;;;;19.30;4.90;;;;;;;;;;5018533;28;20057;-75
2022/11/21 08:30:01;;;;;;;24.70;4.80;;;;;;;;;;5034122;28;20413;-76
2022/11/21 08:32:27;;;;;;;24.13;4.82;;;;;;;;;;5027395;28;20486;-78
2022/11/21 08:34:53;;;;;;;24.73;4.50;;;;;;;;;;5014617;28;20042;-75
2022/11/21 08:37:20;;;;;;;18.83;4.00;;;;;;;;;;5012907;28;20062;-78
2022/11/21 08:39:46;;;;;;;16.77;4.15;;;;;;;;;;5018879;28;20053;-80
2022/11/21 08:42:13;;;;;;;17.52;3.90;;;;;;;;;;5019805;28;20050;-81
2022/11/21 08:44:39;;;;;;;21.40;4.00;;;;;;;;;;5033179;28;20045;-80
2022/11/21 08:47:05;;;;;;;20.40;3.75;;;;;;;;;;5032986;28;20048;-80
2022/11/21 08:49:32;;;;;;;22.25;4.57;;;;;;;;;;5032779;28;20041;-80
2022/11/21 08:51:58;;;;;;;22.85;4.78;;;;;;;;;;5033058;28;20050;-81
2022/11/21 08:54:25;;;;;;;24.92;4.07;;;;;;;;;;5013956;28;20054;-80
2022/11/21 08:56:52;;;;;;;21.52;4.13;;;;;;;;;;5014401;28;20045;-80
2022/11/21 08:59:18;;;;;;;27.67;4.57;;;;;;;;;;5014431;28;20061;-83
2022/11/21 09:01:45;;;;;;;23.88;4.68;;;;;;;;;;5014372;28;20069;-82
2022/11/21 09:04:11;;;;;;;18.63;3.38;;;;;;;;;;5012642;28;20057;-81
2022/11/21 09:06:38;;;;;;;17.48;3.80;;;;;;;;;;5013763;28;20050;-81
2022/11/21 09:09:05;;;;;;;23.88;3.78;;;;;;;;;;5026120;28;20080;-79
2022/11/21 09:11:32;;;;;;;15.65;2.90;;;;;;;;;;5033518;28;20045;-81
2022/11/21 09:19:39;;;;;;;21.48;4.07;;;;;;;;;;5036821;28;20516;-81
2022/11/21 09:22:06;;;;;;;15.77;2.90;;;;;;;;;;5033112;28;20050;-81
2022/11/21 09:24:32;;;;;;;19.40;3.42;;;;;;;;;;5033192;28;20046;-80
2022/11/21 09:26:59;;;;;;;24.42;3.35;;;;;;;;;;5031549;28;20045;-80
2022/11/21 09:29:25;;;;;;;13.55;2.65;;;;;;;;;;5031863;28;20045;-80
2022/11/21 09:31:52;;;;;;;16.27;3.30;;;;;;;;;;5031086;28;20103;-80
2022/11/21 09:34:19;;;;;;;18.60;2.88;;;;;;;;;;5013994;28;20490;-79
2022/11/21 09:36:45;;;;;;;15.82;2.85;;;;;;;;;;5012819;28;20061;-79
2022/11/21 09:39:12;;;;;;;13.05;2.47;;;;;;;;;;5012862;28;20088;-79
2022/11/21 09:41:51;;;;;;;13.85;2.78;;;;;;;;;;5013317;28;20060;-78
2022/11/21 09:44:20;;;;;;;15.57;2.88;;;;;;;;;;5012631;28;20509;-79
2022/11/21 09:46:48;;;;;;;12.23;2.75;;;;;;;;;;5012535;28;20046;-79
2022/11/21 09:49:14;;;;;;;14.95;3.03;;;;;;;;;;5012916;28;20101;-80
2022/11/21 09:51:42;;;;;;;18.20;3.00;;;;;;;;;;5011564;28;20045;-80
2022/11/21 09:54:09;;;;;;;;;;;;;;;;;;5013195;28;20046;-81
2022/11/21 09:56:37;;;;;;;13.57;3.03;;;;;;;;;;5012505;28;20378;-81
2022/11/21 09:59:07;;;;;;;12.52;2.63;;;;;;;;;;5012097;28;20058;-81
2022/11/21 10:01:33;;;;;;;14.60;2.60;;;;;;;;;;5031343;28;20854;-81
2022/11/21 10:04:01;;;;;;;14.70;2.60;;;;;;;;;;5032231;28;20080;-82
2022/11/21 10:06:28;;;;;;;18.63;2.47;;;;;;;;;;5031725;28;20056;-70
2022/11/21 10:09:13;;;;;;;19.08;3.85;;;;;;;;;;5030133;28;20041;-77
2022/11/21 10:14:56;;;;;;;10.35;2.45;;;;;;;;;;5032384;28;20147;-80
2022/11/21 10:17:40;;;;;;;13.70;3.15;;;;;;;;;;5032343;28;20057;-79
2022/11/21 10:20:26;;;;;;;11.90;2.60;;;;;;;;;;5030707;28;20057;-80
2022/11/21 10:22:53;;;;;;;14.80;2.30;;;;;;;;;;5020752;28;20495;-78
2022/11/21 10:25:24;;;;;;;16.88;2.50;;;;;;;;;;5027326;28;20049;-78
2022/11/21 10:27:55;;;;;;;10.10;2.10;;;;;;;;;;5022967;28;20111;-79
2022/11/21 10:30:22;;;;;;;11.60;2.42;;;;;;;;;;5020187;28;20808;-77
2022/11/21 10:32:53;;;;;;;8.38;1.92;;;;;;;;;;5027317;28;20463;-79
2022/11/21 10:35:21;;;;;;;11.25;1.60;;;;;;;;;;5018706;28;20081;-78
2022/11/21 10:38:01;;;;;;;7.75;1.80;;;;;;;;;;5013843;28;20060;-79
2022/11/21 10:40:39;;;;;;;6.90;2.00;;;;;;;;;;5017173;28;20057;-77
2022/11/21 10:46:20;;;;;;;9.02;1.63;;;;;;;;;;5029574;28;20053;-77
2022/11/21 10:48:54;;;;;;;9.25;2.00;;;;;;;;;;5031516;28;20059;-79
2022/11/21 10:51:26;;;;;;;8.15;1.77;;;;;;;;;;5031596;28;20477;-78
2022/11/21 10:56:48;;;;;;;9.95;2.20;;;;;;;;;;5031363;28;20103;-81
2022/11/21 10:59:21;;;;;;;6.18;1.17;;;;;;;;;;5031065;28;20081;-82
2022/11/21 11:01:56;;;;;;;7.30;1.70;;;;;;;;;;5031520;28;20049;-82
2022/11/21 11:04:23;;;;;;;8.70;1.50;;;;;;;;;;5026037;28;20060;-83
2022/11/21 11:06:58;;;;;;;7.40;1.75;;;;;;;;;;5022158;28;20049;-81
2022/11/21 11:09:28;;;;;;;7.20;1.55;;;;;;;;;;5030051;28;20053;-81
2022/11/21 11:12:17;;;;;;;6.43;1.00;;;;;;;;;;5031065;28;20099;-81
2022/11/21 11:14:49;;;;;;;5.10;1.48;;;;;;;;;;5029991;28;20470;-81
2022/11/21 11:17:15;;;;;;;8.20;1.35;;;;;;;;;;5029708;28;20544;-81
2022/11/21 11:19:58;;;;;;;5.85;1.50;;;;;;;;;;5030959;28;20056;-81
2022/11/21 11:22:29;;;;;;;4.45;1.35;;;;;;;;;;5029896;28;20390;-82
2022/11/21 11:24:55;;;;;;;6.25;1.60;;;;;;;;;;5015257;28;20532;-83
2022/11/21 11:27:27;;;;;;;8.40;1.58;;;;;;;;;;5031181;28;20085;-80
2022/11/21 11:29:53;;;;;;;3.30;1.38;;;;;;;;;;5031162;28;20453;-79
2022/11/21 11:32:20;;;;;;;3.25;1.20;;;;;;;;;;5029098;28;20053;-79
2022/11/21 11:34:58;;;;;;;5.93;1.30;;;;;;;;;;5016709;28;20138;-79
2022/11/21 11:37:31;;;;;;;6.05;1.25;;;;;;;;;;5021411;28;20474;-77
2022/11/21 11:40:18;;;;;;;6.35;1.30;;;;;;;;;;5026576;28;20462;-78
2022/11/21 11:48:34;;;;;;;5.18;1.42;;;;;;;;;;5014761;28;20077;-79
2022/11/21 11:51:23;;;;;;;4.95;1.70;;;;;;;;;;5020557;28;20049;-77
2022/11/21 11:53:52;;;;;;;6.60;1.70;;;;;;;;;;5034484;28;20136;-79
2022/11/21 11:56:27;;;;;;;5.22;1.00;;;;;;;;;;5025820;28;20104;-77
2022/11/21 11:58:59;;;;;;;4.68;1.02;;;;;;;;;;5019041;28;20139;-78
2022/11/21 12:01:32;;;;;;;3.30;1.25;;;;;;;;;;5014905;28;20057;-77
2022/11/21 12:04:03;;;;;;;2.92;0.80;;;;;;;;;;5015543;28;20041;-78
2022/11/21 12:06:32;;;;;;;2.58;0.95;;;;;;;;;;5013437;28;20050;-77
2022/11/21 12:09:21;;;;;;;7.05;1.38;;;;;;;;;;5028499;28;20060;-76
2022/11/21 12:12:06;;;;;;;4.00;1.00;;;;;;;;;;5033970;28;20057;-72
2022/11/21 12:17:37;;;;;;;3.08;0.90;;;;;;;;;;5034495;28;20049;-75
2022/11/21 12:20:10;;;;;;;2.17;1.00;;;;;;;;;;5032940;28;20111;-76
2022/11/21 12:22:37;;;;;;;3.58;0.60;;;;;;;;;;5026853;28;20128;-78
2022/11/21 12:25:09;;;;;;;4.40;4.07;;;;;;;;;;5027298;28;20046;-75
2022/11/21 12:27:39;;;;;;;1.45;0.40;;;;;;;;;;5020085;28;20059;-79
2022/11/21 12:30:13;;;;;;;2.28;0.40;;;;;;;;;;5030855;28;20053;-79
2022/11/21 12:32:48;;;;;;;1.95;0.60;;;;;;;;;;5032454;28;20049;-78
2022/11/21 12:35:26;;;;;;;3.95;0.40;;;;;;;;;;5034133;28;20486;-78
2022/11/21 12:38:28;;;;;;;2.33;0.43;;;;;;;;;;5020432;28;20061;-78
2022/11/21 12:42:47;;;;;;;2.15;0.70;;;;;;;;;;5031225;28;20132;-78
2022/11/21 12:44:06;;;;;;;0.88;0.30;;;;;;;;;;5033841;28;20064;-78
2022/11/21 12:46:36;;;;;;;1.63;0.30;;;;;;;;;;5032471;28;20053;-75
2022/11/21 12:55:18;;;;;;;2.08;0.40;;;;;;;;;;5033580;28;20129;-76
2022/11/21 12:57:57;;;;;;;2.25;0.50;;;;;;;;;;5032608;28;20049;-76
2022/11/21 13:00:45;;;;;;;0.80;0.20;;;;;;;;;;5020114;28;20136;-78
2022/11/21 13:03:20;;;;;;;3.80;0.80;;;;;;;;;;5021981;28;20096;-74
2022/11/21 13:05:49;;;;;;;2.80;0.88;;;;;;;;;;5033534;28;20065;-77
2022/11/21 13:08:18;;;;;;;2.30;0.98;;;;;;;;;;5033300;28;20294;-82
2022/11/21 13:10:50;;;;;;;3.92;1.48;;;;;;;;;;5031986;28;20444;-73
2022/11/21 13:13:27;;;;;;;0.63;0.40;;;;;;;;;;5033252;28;20042;-74
2022/11/21 13:16:08;;;;;;;3.88;1.10;;;;;;;;;;5032047;28;20056;-77
2022/11/21 13:18:40;;;;;;;3.60;1.45;;;;;;;;;;5033131;28;20051;-73
2022/11/21 13:21:27;;;;;;;6.20;1.30;;;;;;;;;;5031671;28;20405;-74
2022/11/21 13:23:53;;;;;;;8.68;1.42;;;;;;;;;;5023636;28;20185;-78
2022/11/21 13:26:28;;;;;;;7.63;1.50;;;;;;;;;;5028384;28;20149;-75
2022/11/21 13:29:12;;;;;;;7.90;1.80;;;;;;;;;;5031791;28;20046;-75
2022/11/21 13:31:39;;;;;;;7.82;2.30;;;;;;;;;;5020607;28;20045;-79
2022/11/21 13:34:25;;;;;;;8.93;1.25;;;;;;;;;;5012584;28;20514;-77
2022/11/21 13:36:51;;;;;;;7.70;1.60;;;;;;;;;;5021129;28;20157;-78
2022/11/21 13:39:25;;;;;;;6.13;1.42;;;;;;;;;;5014137;28;20081;-74
2022/11/21 13:44:46;;;;;;;5.07;1.83;;;;;;;;;;5021766;28;20058;-74
2022/11/21 13:47:25;;;;;;;2.20;0.82;;;;;;;;;;5026935;28;20051;-72
2022/11/21 13:50:10;;;;;;;4.05;0.90;;;;;;;;;;5019505;28;20046;-73
2022/11/21 13:52:42;;;;;;;4.07;1.00;;;;;;;;;;5003972;28;20054;-80
2022/11/21 13:55:28;;;;;;;1.17;0.43;;;;;;;;;;5021582;28;20052;-86
2022/11/21 13:57:57;;;;;;;2.83;0.85;;;;;;;;;;4999034;28;20053;-75
2022/11/21 14:00:47;;;;;;;3.38;1.33;;;;;;;;;;5013752;28;20164;-80
2022/11/21 14:03:19;;;;;;;1.48;0.47;;;;;;;;;;5030464;28;20077;-74
2022/11/21 14:05:49;;;;;;;4.05;0.60;;;;;;;;;;5032207;28;20046;-75
2022/11/21 14:08:17;;;;;;;2.15;0.50;;;;;;;;;;5031942;28;20494;-77
2022/11/21 14:10:45;;;;;;;2.85;0.55;;;;;;;;;;5031104;28;20050;-75
2022/11/21 14:13:28;;;;;;;1.90;0.52;;;;;;;;;;5030820;28;20059;-77
2022/11/21 14:16:07;;;;;;;3.42;0.82;;;;;;;;;;5020918;28;20079;-76
2022/11/21 14:18:34;;;;;;;2.90;0.57;;;;;;;;;;5031827;28;20394;-74
2022/11/21 14:21:02;;;;;;;1.55;0.40;;;;;;;;;;5031910;28;20424;-79
2022/11/21 14:23:28;;;;;;;;;;;;;;;;;;5015720;28;20140;-80
2022/11/21 14:26:00;;;;;;;4.22;0.47;;;;;;;;;;5022881;28;20019;-78
2022/11/21 14:28:31;;;;;;;1.33;0.30;;;;;;;;;;5031658;28;20047;-79
2022/11/21 14:30:59;;;;;;;0.88;0.50;;;;;;;;;;5030000;28;20044;-79
2022/11/21 14:33:33;;;;;;;3.55;0.70;;;;;;;;;;5017851;28;20529;-78
2022/11/21 14:36:05;;;;;;;3.85;1.05;;;;;;;;;;5013236;28;20127;-79
2022/11/21 14:38:52;;;;;;;2.33;0.43;;;;;;;;;;5027545;28;20061;-74
2022/11/21 14:41:39;;;;;;;2.38;0.98;;;;;;;;;;5030998;28;20057;-77
2022/11/21 14:44:13;;;;;;;4.30;1.20;;;;;;;;;;5017045;28;20075;-77
2022/11/21 14:46:40;;;;;;;9.10;1.50;;;;;;;;;;5018634;28;20050;-78
2022/11/21 14:49:16;;;;;;;6.07;1.58;;;;;;;;;;5029037;28;20508;-77
2022/11/21 14:51:58;;;;;;;6.10;2.10;;;;;;;;;;5018330;28;20104;-75
2022/11/21 14:54:26;;;;;;;10.02;2.05;;;;;;;;;;5018570;28;20505;-73
2022/11/21 14:56:58;;;;;;;5.45;2.28;;;;;;;;;;5016665;28;20108;-77
2022/11/21 14:59:41;;;;;;;4.32;1.30;;;;;;;;;;5017810;28;20054;-77
2022/11/21 15:02:19;;;;;;;6.05;1.30;;;;;;;;;;5019806;28;20059;-75
2022/11/21 15:04:46;;;;;;;;;;;;;;;;;;5014866;28;20061;-76
2022/11/21 15:07:17;;;;;;;6.18;1.20;;;;;;;;;;5015140;28;19925;-76
2022/11/21 15:09:44;;;;;;;9.20;1.80;;;;;;;;;;5026551;28;20060;-75
2022/11/21 15:12:36;;;;;;;7.85;2.20;;;;;;;;;;5005350;28;20046;-75
2022/11/21 15:15:45;;;;;;;9.85;2.03;;;;;;;;;;5021208;28;20049;-75
2022/11/21 15:18:14;;;;;;;12.57;2.58;;;;;;;;;;5027269;28;20057;-75
2022/11/21 15:20:57;;;;;;;10.48;2.75;;;;;;;;;;5025199;28;20072;-75
2022/11/21 15:23:29;;;;;;;9.60;1.63;;;;;;;;;;5021344;28;20152;-73
2022/11/21 15:25:56;;;;;;;12.73;2.33;;;;;;;;;;5030834;28;20045;-74
2022/11/21 15:28:27;;;;;;;13.15;2.70;;;;;;;;;;5029817;28;20053;-75
2022/11/21 15:31:12;;;;;;;12.50;2.70;;;;;;;;;;5031075;28;20056;-73